sensor_id;sensor_type;location;lat;lon;timestamp;P1;durP1;ratioP1;P2;durP2;ratioP2
9563;SDS011;4820;50.870;4.702;2023-10-19T00:01:57;2.03;;;1.05;;
9563;SDS011;4820;50.870;4.702;2023-10-19T00:04:24;3.85;;;1.13;;
9563;SDS011;4820;50.870;4.702;2023-10-19T00:06:51;3.45;;;1.10;;
9563;SDS011;4820;50.870;4.702;2023-10-19T00:09:18;2.70;;;1.10;;
9563;SDS011;4820;50.870;4.702;2023-10-19T00:11:45;2.70;;;1.13;;
9563;SDS011;4820;50.870;4.702;2023-10-19T00:14:12;2.75;;;1.00;;
9563;SDS011;4820;50.870;4.702;2023-10-19T00:16:42;1.83;;;1.05;;
9563;SDS011;4820;50.870;4.702;2023-10-19T00:19:14;3.35;;;1.02;;
9563;SDS011;4820;50.870;4.702;2023-10-19T00:21:44;2.85;;;0.98;;
9563;SDS011;4820;50.870;4.702;2023-10-19T00:24:20;2.85;;;1.10;;
9563;SDS011;4820;50.870;4.702;2023-10-19T00:26:48;3.78;;;1.23;;
9563;SDS011;4820;50.870;4.702;2023-10-19T00:29:18;4.82;;;1.15;;
9563;SDS011;4820;50.870;4.702;2023-10-19T00:31:57;4.45;;;1.58;;
9563;SDS011;4820;50.870;4.702;2023-10-19T00:34:25;6.45;;;1.58;;
9563;SDS011;4820;50.870;4.702;2023-10-19T00:36:53;3.60;;;1.33;;
9563;SDS011;4820;50.870;4.702;2023-10-19T00:39:21;1.35;;;0.88;;
9563;SDS011;4820;50.870;4.702;2023-10-19T00:41:49;3.40;;;1.52;;
9563;SDS011;4820;50.870;4.702;2023-10-19T00:44:15;2.45;;;1.10;;
9563;SDS011;4820;50.870;4.702;2023-10-19T00:46:47;2.83;;;1.20;;
9563;SDS011;4820;50.870;4.702;2023-10-19T00:49:24;2.63;;;1.05;;
9563;SDS011;4820;50.870;4.702;2023-10-19T00:51:52;3.95;;;1.33;;
9563;SDS011;4820;50.870;4.702;2023-10-19T00:54:36;3.40;;;1.40;;
9563;SDS011;4820;50.870;4.702;2023-10-19T00:57:07;3.42;;;1.20;;
9563;SDS011;4820;50.870;4.702;2023-10-19T00:59:36;3.17;;;1.17;;
9563;SDS011;4820;50.870;4.702;2023-10-19T01:02:19;3.40;;;1.27;;
9563;SDS011;4820;50.870;4.702;2023-10-19T01:04:48;3.08;;;1.27;;
9563;SDS011;4820;50.870;4.702;2023-10-19T01:07:29;3.53;;;1.40;;
9563;SDS011;4820;50.870;4.702;2023-10-19T01:10:01;2.58;;;1.20;;
9563;SDS011;4820;50.870;4.702;2023-10-19T01:12:33;2.35;;;1.40;;
9563;SDS011;4820;50.870;4.702;2023-10-19T01:17:47;3.53;;;1.88;;
9563;SDS011;4820;50.870;4.702;2023-10-19T01:20:18;2.38;;;1.02;;
9563;SDS011;4820;50.870;4.702;2023-10-19T01:22:59;2.45;;;1.48;;
9563;SDS011;4820;50.870;4.702;2023-10-19T01:28:27;3.80;;;1.30;;
9563;SDS011;4820;50.870;4.702;2023-10-19T01:31:17;2.97;;;1.20;;
9563;SDS011;4820;50.870;4.702;2023-10-19T01:33:54;3.13;;;1.30;;
9563;SDS011;4820;50.870;4.702;2023-10-19T01:36:21;3.30;;;1.10;;
9563;SDS011;4820;50.870;4.702;2023-10-19T01:38:48;2.58;;;1.30;;
9563;SDS011;4820;50.870;4.702;2023-10-19T01:41:14;4.50;;;1.20;;
9563;SDS011;4820;50.870;4.702;2023-10-19T01:43:43;2.70;;;1.60;;
9563;SDS011;4820;50.870;4.702;2023-10-19T01:46:10;3.42;;;1.30;;
9563;SDS011;4820;50.870;4.702;2023-10-19T01:48:40;3.67;;;1.50;;
9563;SDS011;4820;50.870;4.702;2023-10-19T01:51:07;3.72;;;1.00;;
9563;SDS011;4820;50.870;4.702;2023-10-19T01:53:39;3.17;;;1.20;;
9563;SDS011;4820;50.870;4.702;2023-10-19T01:56:09;2.55;;;1.40;;
9563;SDS011;4820;50.870;4.702;2023-10-19T01:58:39;2.50;;;1.30;;
9563;SDS011;4820;50.870;4.702;2023-10-19T02:01:06;6.82;;;1.85;;
9563;SDS011;4820;50.870;4.702;2023-10-19T02:03:38;3.17;;;1.70;;
9563;SDS011;4820;50.870;4.702;2023-10-19T02:06:10;4.30;;;1.38;;
9563;SDS011;4820;50.870;4.702;2023-10-19T02:08:58;4.63;;;2.20;;
9563;SDS011;4820;50.870;4.702;2023-10-19T02:11:27;3.20;;;1.40;;
9563;SDS011;4820;50.870;4.702;2023-10-19T02:13:54;3.67;;;1.40;;
9563;SDS011;4820;50.870;4.702;2023-10-19T02:16:25;3.15;;;1.70;;
9563;SDS011;4820;50.870;4.702;2023-10-19T02:18:54;5.43;;;1.55;;
9563;SDS011;4820;50.870;4.702;2023-10-19T02:21:20;4.47;;;1.33;;
9563;SDS011;4820;50.870;4.702;2023-10-19T02:23:55;4.57;;;1.40;;
9563;SDS011;4820;50.870;4.702;2023-10-19T02:26:23;3.85;;;1.40;;
9563;SDS011;4820;50.870;4.702;2023-10-19T02:28:52;3.67;;;1.45;;
9563;SDS011;4820;50.870;4.702;2023-10-19T02:31:19;4.07;;;1.70;;
9563;SDS011;4820;50.870;4.702;2023-10-19T02:33:52;4.90;;;1.77;;
9563;SDS011;4820;50.870;4.702;2023-10-19T02:36:25;4.68;;;1.60;;
9563;SDS011;4820;50.870;4.702;2023-10-19T02:38:55;5.20;;;1.42;;
9563;SDS011;4820;50.870;4.702;2023-10-19T02:41:24;6.30;;;1.55;;
9563;SDS011;4820;50.870;4.702;2023-10-19T02:43:55;3.85;;;1.60;;
9563;SDS011;4820;50.870;4.702;2023-10-19T02:46:32;4.18;;;1.48;;
9563;SDS011;4820;50.870;4.702;2023-10-19T02:49:02;5.07;;;1.63;;
9563;SDS011;4820;50.870;4.702;2023-10-19T02:51:30;4.15;;;1.50;;
9563;SDS011;4820;50.870;4.702;2023-10-19T02:53:56;4.95;;;1.50;;
9563;SDS011;4820;50.870;4.702;2023-10-19T02:56:25;5.20;;;1.95;;
9563;SDS011;4820;50.870;4.702;2023-10-19T02:58:52;5.22;;;1.70;;
9563;SDS011;4820;50.870;4.702;2023-10-19T03:01:21;6.03;;;1.88;;
9563;SDS011;4820;50.870;4.702;2023-10-19T03:03:47;6.80;;;1.60;;
9563;SDS011;4820;50.870;4.702;2023-10-19T03:06:17;6.13;;;1.55;;
9563;SDS011;4820;50.870;4.702;2023-10-19T03:08:45;4.63;;;1.65;;
9563;SDS011;4820;50.870;4.702;2023-10-19T03:11:12;7.00;;;1.83;;
9563;SDS011;4820;50.870;4.702;2023-10-19T03:13:39;6.57;;;1.80;;
9563;SDS011;4820;50.870;4.702;2023-10-19T03:16:06;4.07;;;1.40;;
9563;SDS011;4820;50.870;4.702;2023-10-19T03:18:35;6.20;;;1.80;;
9563;SDS011;4820;50.870;4.702;2023-10-19T03:21:01;7.10;;;2.03;;
9563;SDS011;4820;50.870;4.702;2023-10-19T03:23:27;5.93;;;1.85;;
9563;SDS011;4820;50.870;4.702;2023-10-19T03:25:54;6.13;;;1.65;;
9563;SDS011;4820;50.870;4.702;2023-10-19T03:28:42;5.28;;;1.63;;
9563;SDS011;4820;50.870;4.702;2023-10-19T03:31:09;7.20;;;2.00;;
9563;SDS011;4820;50.870;4.702;2023-10-19T03:33:45;6.40;;;1.95;;
9563;SDS011;4820;50.870;4.702;2023-10-19T03:36:15;6.90;;;2.22;;
9563;SDS011;4820;50.870;4.702;2023-10-19T03:38:41;5.85;;;1.80;;
9563;SDS011;4820;50.870;4.702;2023-10-19T03:41:09;8.95;;;2.00;;
9563;SDS011;4820;50.870;4.702;2023-10-19T03:43:36;4.63;;;1.77;;
9563;SDS011;4820;50.870;4.702;2023-10-19T03:46:06;6.65;;;1.90;;
9563;SDS011;4820;50.870;4.702;2023-10-19T03:48:55;6.25;;;2.10;;
9563;SDS011;4820;50.870;4.702;2023-10-19T03:51:27;4.18;;;1.80;;
9563;SDS011;4820;50.870;4.702;2023-10-19T03:54:05;3.65;;;1.55;;
9563;SDS011;4820;50.870;4.702;2023-10-19T03:56:46;5.57;;;2.08;;
9563;SDS011;4820;50.870;4.702;2023-10-19T03:59:13;4.47;;;1.80;;
9563;SDS011;4820;50.870;4.702;2023-10-19T04:01:39;7.20;;;1.92;;
9563;SDS011;4820;50.870;4.702;2023-10-19T04:04:05;6.68;;;2.20;;
9563;SDS011;4820;50.870;4.702;2023-10-19T04:06:32;7.82;;;1.85;;
9563;SDS011;4820;50.870;4.702;2023-10-19T04:08:57;6.82;;;1.75;;
9563;SDS011;4820;50.870;4.702;2023-10-19T04:11:24;7.15;;;2.22;;
9563;SDS011;4820;50.870;4.702;2023-10-19T04:13:57;6.22;;;1.95;;
9563;SDS011;4820;50.870;4.702;2023-10-19T04:16:29;7.05;;;1.90;;
9563;SDS011;4820;50.870;4.702;2023-10-19T04:18:57;7.30;;;1.80;;
9563;SDS011;4820;50.870;4.702;2023-10-19T04:21:23;3.75;;;1.63;;
9563;SDS011;4820;50.870;4.702;2023-10-19T04:23:49;6.75;;;1.80;;
9563;SDS011;4820;50.870;4.702;2023-10-19T04:26:15;6.57;;;1.90;;
9563;SDS011;4820;50.870;4.702;2023-10-19T04:28:44;5.05;;;1.77;;
9563;SDS011;4820;50.870;4.702;2023-10-19T04:31:10;5.55;;;1.80;;
9563;SDS011;4820;50.870;4.702;2023-10-19T04:33:39;9.85;;;1.90;;
9563;SDS011;4820;50.870;4.702;2023-10-19T04:36:08;5.20;;;1.85;;
9563;SDS011;4820;50.870;4.702;2023-10-19T04:38:36;8.85;;;2.13;;
9563;SDS011;4820;50.870;4.702;2023-10-19T04:41:08;8.25;;;2.10;;
9563;SDS011;4820;50.870;4.702;2023-10-19T04:43:36;8.93;;;1.80;;
9563;SDS011;4820;50.870;4.702;2023-10-19T04:46:09;6.28;;;2.00;;
9563;SDS011;4820;50.870;4.702;2023-10-19T04:48:37;6.15;;;2.33;;
9563;SDS011;4820;50.870;4.702;2023-10-19T04:51:05;6.43;;;1.90;;
9563;SDS011;4820;50.870;4.702;2023-10-19T04:53:33;5.63;;;2.15;;
9563;SDS011;4820;50.870;4.702;2023-10-19T04:55:59;5.22;;;2.08;;
9563;SDS011;4820;50.870;4.702;2023-10-19T04:58:26;10.02;;;3.97;;
9563;SDS011;4820;50.870;4.702;2023-10-19T05:00:53;6.47;;;1.77;;
9563;SDS011;4820;50.870;4.702;2023-10-19T05:03:19;5.20;;;2.28;;
9563;SDS011;4820;50.870;4.702;2023-10-19T05:05:45;8.10;;;2.25;;
9563;SDS011;4820;50.870;4.702;2023-10-19T05:08:11;6.10;;;1.90;;
9563;SDS011;4820;50.870;4.702;2023-10-19T05:10:36;5.82;;;1.70;;
9563;SDS011;4820;50.870;4.702;2023-10-19T05:13:03;5.13;;;2.22;;
9563;SDS011;4820;50.870;4.702;2023-10-19T05:15:29;5.03;;;1.98;;
9563;SDS011;4820;50.870;4.702;2023-10-19T05:17:55;7.15;;;2.20;;
9563;SDS011;4820;50.870;4.702;2023-10-19T05:20:21;7.57;;;1.95;;
9563;SDS011;4820;50.870;4.702;2023-10-19T05:22:48;11.13;;;2.70;;
9563;SDS011;4820;50.870;4.702;2023-10-19T05:25:14;8.82;;;2.20;;
9563;SDS011;4820;50.870;4.702;2023-10-19T05:27:40;8.15;;;2.60;;
9563;SDS011;4820;50.870;4.702;2023-10-19T05:30:07;5.72;;;2.00;;
9563;SDS011;4820;50.870;4.702;2023-10-19T05:32:36;5.88;;;2.10;;
9563;SDS011;4820;50.870;4.702;2023-10-19T05:35:03;6.10;;;2.08;;
9563;SDS011;4820;50.870;4.702;2023-10-19T05:37:30;9.88;;;2.60;;
9563;SDS011;4820;50.870;4.702;2023-10-19T05:39:56;7.68;;;2.80;;
9563;SDS011;4820;50.870;4.702;2023-10-19T05:42:22;6.55;;;2.45;;
9563;SDS011;4820;50.870;4.702;2023-10-19T05:44:48;8.02;;;2.28;;
9563;SDS011;4820;50.870;4.702;2023-10-19T05:47:14;6.95;;;2.67;;
9563;SDS011;4820;50.870;4.702;2023-10-19T05:49:40;8.70;;;2.50;;
9563;SDS011;4820;50.870;4.702;2023-10-19T05:52:05;8.40;;;3.20;;
9563;SDS011;4820;50.870;4.702;2023-10-19T05:54:31;5.38;;;2.85;;
9563;SDS011;4820;50.870;4.702;2023-10-19T05:56:57;10.32;;;3.03;;
9563;SDS011;4820;50.870;4.702;2023-10-19T05:59:23;10.70;;;2.60;;
9563;SDS011;4820;50.870;4.702;2023-10-19T06:01:51;7.15;;;2.65;;
9563;SDS011;4820;50.870;4.702;2023-10-19T06:04:17;9.55;;;2.47;;
9563;SDS011;4820;50.870;4.702;2023-10-19T06:06:43;13.93;;;2.47;;
9563;SDS011;4820;50.870;4.702;2023-10-19T06:09:09;19.60;;;3.33;;
9563;SDS011;4820;50.870;4.702;2023-10-19T06:11:35;11.55;;;2.65;;
9563;SDS011;4820;50.870;4.702;2023-10-19T06:14:04;14.40;;;2.83;;
9563;SDS011;4820;50.870;4.702;2023-10-19T06:16:33;9.63;;;2.88;;
9563;SDS011;4820;50.870;4.702;2023-10-19T06:18:59;15.43;;;3.30;;
9563;SDS011;4820;50.870;4.702;2023-10-19T06:21:25;12.00;;;2.70;;
9563;SDS011;4820;50.870;4.702;2023-10-19T06:23:51;18.50;;;3.28;;
9563;SDS011;4820;50.870;4.702;2023-10-19T06:26:18;10.40;;;2.70;;
9563;SDS011;4820;50.870;4.702;2023-10-19T06:28:44;8.35;;;2.72;;
9563;SDS011;4820;50.870;4.702;2023-10-19T06:31:10;9.57;;;2.38;;
9563;SDS011;4820;50.870;4.702;2023-10-19T06:33:36;7.32;;;2.50;;
9563;SDS011;4820;50.870;4.702;2023-10-19T06:36:06;7.18;;;2.50;;
9563;SDS011;4820;50.870;4.702;2023-10-19T06:38:32;7.97;;;2.22;;
9563;SDS011;4820;50.870;4.702;2023-10-19T06:40:59;12.18;;;2.75;;
9563;SDS011;4820;50.870;4.702;2023-10-19T06:43:28;12.27;;;2.55;;
9563;SDS011;4820;50.870;4.702;2023-10-19T06:45:55;7.97;;;2.60;;
9563;SDS011;4820;50.870;4.702;2023-10-19T06:48:21;7.80;;;2.20;;
9563;SDS011;4820;50.870;4.702;2023-10-19T06:50:47;6.28;;;2.30;;
9563;SDS011;4820;50.870;4.702;2023-10-19T06:53:13;4.30;;;1.77;;
9563;SDS011;4820;50.870;4.702;2023-10-19T06:55:39;4.07;;;1.90;;
9563;SDS011;4820;50.870;4.702;2023-10-19T06:58:05;6.47;;;2.38;;
9563;SDS011;4820;50.870;4.702;2023-10-19T07:00:32;14.20;;;3.25;;
9563;SDS011;4820;50.870;4.702;2023-10-19T07:02:59;8.80;;;2.70;;
9563;SDS011;4820;50.870;4.702;2023-10-19T07:05:28;11.95;;;3.17;;
9563;SDS011;4820;50.870;4.702;2023-10-19T07:07:57;9.75;;;2.45;;
9563;SDS011;4820;50.870;4.702;2023-10-19T07:10:24;9.88;;;2.90;;
9563;SDS011;4820;50.870;4.702;2023-10-19T07:12:52;8.20;;;2.28;;
9563;SDS011;4820;50.870;4.702;2023-10-19T07:15:19;6.22;;;2.05;;
9563;SDS011;4820;50.870;4.702;2023-10-19T07:17:50;7.05;;;2.00;;
9563;SDS011;4820;50.870;4.702;2023-10-19T07:20:19;9.93;;;2.75;;
9563;SDS011;4820;50.870;4.702;2023-10-19T07:22:58;5.57;;;2.10;;
9563;SDS011;4820;50.870;4.702;2023-10-19T07:25:28;4.72;;;2.08;;
9563;SDS011;4820;50.870;4.702;2023-10-19T07:27:54;8.50;;;2.30;;
9563;SDS011;4820;50.870;4.702;2023-10-19T07:30:20;15.13;;;2.78;;
9563;SDS011;4820;50.870;4.702;2023-10-19T07:32:49;14.00;;;3.03;;
9563;SDS011;4820;50.870;4.702;2023-10-19T07:35:24;11.65;;;2.80;;
9563;SDS011;4820;50.870;4.702;2023-10-19T07:37:56;10.55;;;2.65;;
9563;SDS011;4820;50.870;4.702;2023-10-19T07:40:21;5.55;;;2.38;;
9563;SDS011;4820;50.870;4.702;2023-10-19T07:42:49;11.25;;;2.95;;
9563;SDS011;4820;50.870;4.702;2023-10-19T07:45:17;9.18;;;2.70;;
9563;SDS011;4820;50.870;4.702;2023-10-19T07:47:43;7.10;;;2.53;;
9563;SDS011;4820;50.870;4.702;2023-10-19T07:50:13;10.15;;;2.25;;
9563;SDS011;4820;50.870;4.702;2023-10-19T07:52:51;7.10;;;2.40;;
9563;SDS011;4820;50.870;4.702;2023-10-19T07:55:19;4.80;;;1.80;;
9563;SDS011;4820;50.870;4.702;2023-10-19T07:57:51;8.50;;;2.42;;
9563;SDS011;4820;50.870;4.702;2023-10-19T08:00:20;5.60;;;2.35;;
9563;SDS011;4820;50.870;4.702;2023-10-19T08:02:46;8.35;;;2.63;;
9563;SDS011;4820;50.870;4.702;2023-10-19T08:05:15;9.55;;;2.50;;
9563;SDS011;4820;50.870;4.702;2023-10-19T08:07:43;10.13;;;2.58;;
9563;SDS011;4820;50.870;4.702;2023-10-19T08:10:11;10.85;;;2.90;;
9563;SDS011;4820;50.870;4.702;2023-10-19T08:12:38;8.15;;;2.28;;
9563;SDS011;4820;50.870;4.702;2023-10-19T08:15:06;11.00;;;2.80;;
9563;SDS011;4820;50.870;4.702;2023-10-19T08:17:39;9.23;;;2.60;;
9563;SDS011;4820;50.870;4.702;2023-10-19T08:20:07;6.65;;;2.50;;
9563;SDS011;4820;50.870;4.702;2023-10-19T08:23:03;8.35;;;2.55;;
9563;SDS011;4820;50.870;4.702;2023-10-19T08:25:30;10.75;;;2.67;;
9563;SDS011;4820;50.870;4.702;2023-10-19T08:27:56;7.20;;;2.38;;
9563;SDS011;4820;50.870;4.702;2023-10-19T08:30:22;7.53;;;2.50;;
9563;SDS011;4820;50.870;4.702;2023-10-19T08:32:48;9.35;;;2.70;;
9563;SDS011;4820;50.870;4.702;2023-10-19T08:35:16;9.48;;;2.72;;
9563;SDS011;4820;50.870;4.702;2023-10-19T08:37:45;11.35;;;3.25;;
9563;SDS011;4820;50.870;4.702;2023-10-19T08:40:12;7.55;;;2.30;;
9563;SDS011;4820;50.870;4.702;2023-10-19T08:42:44;9.20;;;2.80;;
9563;SDS011;4820;50.870;4.702;2023-10-19T08:45:11;12.10;;;3.17;;
9563;SDS011;4820;50.870;4.702;2023-10-19T08:48:02;9.15;;;2.90;;
9563;SDS011;4820;50.870;4.702;2023-10-19T08:50:28;6.43;;;2.20;;
9563;SDS011;4820;50.870;4.702;2023-10-19T08:53:03;10.75;;;2.78;;
9563;SDS011;4820;50.870;4.702;2023-10-19T08:55:30;8.80;;;2.78;;
9563;SDS011;4820;50.870;4.702;2023-10-19T08:57:56;8.85;;;2.75;;
9563;SDS011;4820;50.870;4.702;2023-10-19T09:00:25;8.50;;;3.00;;
9563;SDS011;4820;50.870;4.702;2023-10-19T09:02:54;9.93;;;2.70;;
9563;SDS011;4820;50.870;4.702;2023-10-19T09:05:24;8.38;;;2.88;;
9563;SDS011;4820;50.870;4.702;2023-10-19T09:07:54;8.15;;;2.63;;
9563;SDS011;4820;50.870;4.702;2023-10-19T09:10:27;11.80;;;3.60;;
9563;SDS011;4820;50.870;4.702;2023-10-19T09:13:06;7.45;;;3.28;;
9563;SDS011;4820;50.870;4.702;2023-10-19T09:15:37;13.30;;;3.38;;
9563;SDS011;4820;50.870;4.702;2023-10-19T09:18:13;26.65;;;3.70;;
9563;SDS011;4820;50.870;4.702;2023-10-19T09:20:47;14.82;;;3.70;;
9563;SDS011;4820;50.870;4.702;2023-10-19T09:23:33;13.35;;;3.58;;
9563;SDS011;4820;50.870;4.702;2023-10-19T09:26:00;13.23;;;2.97;;
9563;SDS011;4820;50.870;4.702;2023-10-19T09:28:30;12.07;;;3.33;;
9563;SDS011;4820;50.870;4.702;2023-10-19T09:30:59;12.95;;;3.33;;
9563;SDS011;4820;50.870;4.702;2023-10-19T09:33:26;8.65;;;2.75;;
9563;SDS011;4820;50.870;4.702;2023-10-19T09:35:54;16.60;;;3.50;;
9563;SDS011;4820;50.870;4.702;2023-10-19T09:38:22;34.70;;;5.28;;
9563;SDS011;4820;50.870;4.702;2023-10-19T09:40:50;9.43;;;2.78;;
9563;SDS011;4820;50.870;4.702;2023-10-19T09:43:21;9.88;;;2.75;;
9563;SDS011;4820;50.870;4.702;2023-10-19T09:45:56;14.75;;;3.75;;
9563;SDS011;4820;50.870;4.702;2023-10-19T09:48:25;11.20;;;4.25;;
9563;SDS011;4820;50.870;4.702;2023-10-19T09:50:53;8.85;;;3.83;;
9563;SDS011;4820;50.870;4.702;2023-10-19T09:53:26;9.82;;;3.30;;
9563;SDS011;4820;50.870;4.702;2023-10-19T09:55:57;10.82;;;2.95;;
9563;SDS011;4820;50.870;4.702;2023-10-19T09:58:26;10.98;;;3.08;;
9563;SDS011;4820;50.870;4.702;2023-10-19T10:00:56;14.30;;;3.50;;
9563;SDS011;4820;50.870;4.702;2023-10-19T10:03:44;7.50;;;2.65;;
9563;SDS011;4820;50.870;4.702;2023-10-19T10:06:17;11.75;;;3.00;;
9563;SDS011;4820;50.870;4.702;2023-10-19T10:08:53;13.90;;;3.10;;
9563;SDS011;4820;50.870;4.702;2023-10-19T10:11:24;12.23;;;2.90;;
9563;SDS011;4820;50.870;4.702;2023-10-19T10:13:51;12.07;;;3.30;;
9563;SDS011;4820;50.870;4.702;2023-10-19T10:16:22;11.63;;;3.17;;
9563;SDS011;4820;50.870;4.702;2023-10-19T10:18:50;11.32;;;2.97;;
9563;SDS011;4820;50.870;4.702;2023-10-19T10:21:19;7.15;;;2.17;;
9563;SDS011;4820;50.870;4.702;2023-10-19T10:23:47;9.45;;;2.60;;
9563;SDS011;4820;50.870;4.702;2023-10-19T10:26:20;10.65;;;3.00;;
9563;SDS011;4820;50.870;4.702;2023-10-19T10:29:35;5.10;;;2.30;;
9563;SDS011;4820;50.870;4.702;2023-10-19T10:31:43;8.35;;;2.50;;
9563;SDS011;4820;50.870;4.702;2023-10-19T10:34:42;7.55;;;2.38;;
9563;SDS011;4820;50.870;4.702;2023-10-19T10:37:06;5.15;;;3.20;;
9563;SDS011;4820;50.870;4.702;2023-10-19T10:39:34;7.90;;;2.58;;
9563;SDS011;4820;50.870;4.702;2023-10-19T10:42:04;5.72;;;2.45;;
9563;SDS011;4820;50.870;4.702;2023-10-19T10:49:52;6.88;;;2.20;;
9563;SDS011;4820;50.870;4.702;2023-10-19T10:52:26;6.78;;;2.30;;
9563;SDS011;4820;50.870;4.702;2023-10-19T10:54:54;6.47;;;2.53;;
9563;SDS011;4820;50.870;4.702;2023-10-19T10:57:21;10.02;;;2.55;;
9563;SDS011;4820;50.870;4.702;2023-10-19T11:00:00;6.93;;;2.70;;
9563;SDS011;4820;50.870;4.702;2023-10-19T11:02:36;6.95;;;2.40;;
9563;SDS011;4820;50.870;4.702;2023-10-19T11:05:08;6.00;;;2.70;;
9563;SDS011;4820;50.870;4.702;2023-10-19T11:08:02;8.82;;;2.58;;
9563;SDS011;4820;50.870;4.702;2023-10-19T11:10:36;6.38;;;2.40;;
9563;SDS011;4820;50.870;4.702;2023-10-19T11:13:03;7.03;;;2.22;;
9563;SDS011;4820;50.870;4.702;2023-10-19T11:15:33;8.57;;;2.78;;
9563;SDS011;4820;50.870;4.702;2023-10-19T11:17:59;6.82;;;2.45;;
9563;SDS011;4820;50.870;4.702;2023-10-19T11:20:27;9.27;;;2.72;;
9563;SDS011;4820;50.870;4.702;2023-10-19T11:22:55;6.78;;;2.63;;
9563;SDS011;4820;50.870;4.702;2023-10-19T11:25:24;6.93;;;2.53;;
9563;SDS011;4820;50.870;4.702;2023-10-19T11:27:58;5.68;;;2.55;;
9563;SDS011;4820;50.870;4.702;2023-10-19T11:30:26;6.88;;;2.20;;
9563;SDS011;4820;50.870;4.702;2023-10-19T11:32:57;5.78;;;2.35;;
9563;SDS011;4820;50.870;4.702;2023-10-19T11:35:23;5.05;;;2.40;;
9563;SDS011;4820;50.870;4.702;2023-10-19T11:37:56;9.95;;;2.70;;
9563;SDS011;4820;50.870;4.702;2023-10-19T11:40:25;6.32;;;2.50;;
9563;SDS011;4820;50.870;4.702;2023-10-19T11:42:55;9.98;;;2.75;;
9563;SDS011;4820;50.870;4.702;2023-10-19T11:45:21;8.35;;;2.60;;
9563;SDS011;4820;50.870;4.702;2023-10-19T11:47:49;9.18;;;2.72;;
9563;SDS011;4820;50.870;4.702;2023-10-19T11:50:16;4.75;;;2.13;;
9563;SDS011;4820;50.870;4.702;2023-10-19T11:52:43;6.70;;;2.30;;
9563;SDS011;4820;50.870;4.702;2023-10-19T11:55:13;9.63;;;2.30;;
9563;SDS011;4820;50.870;4.702;2023-10-19T11:57:40;5.97;;;2.60;;
9563;SDS011;4820;50.870;4.702;2023-10-19T12:00:08;6.07;;;2.35;;
9563;SDS011;4820;50.870;4.702;2023-10-19T12:02:47;5.68;;;2.00;;
9563;SDS011;4820;50.870;4.702;2023-10-19T12:05:13;4.93;;;1.80;;
9563;SDS011;4820;50.870;4.702;2023-10-19T12:07:39;4.97;;;2.17;;
9563;SDS011;4820;50.870;4.702;2023-10-19T12:10:08;5.93;;;2.22;;
9563;SDS011;4820;50.870;4.702;2023-10-19T12:12:35;5.40;;;2.33;;
9563;SDS011;4820;50.870;4.702;2023-10-19T12:15:01;9.02;;;2.13;;
9563;SDS011;4820;50.870;4.702;2023-10-19T12:17:28;5.47;;;2.00;;
9563;SDS011;4820;50.870;4.702;2023-10-19T12:19:55;8.40;;;2.30;;
9563;SDS011;4820;50.870;4.702;2023-10-19T12:22:21;6.95;;;2.45;;
9563;SDS011;4820;50.870;4.702;2023-10-19T12:24:47;7.88;;;2.60;;
9563;SDS011;4820;50.870;4.702;2023-10-19T12:27:14;9.35;;;2.42;;
9563;SDS011;4820;50.870;4.702;2023-10-19T12:29:40;8.57;;;2.08;;
9563;SDS011;4820;50.870;4.702;2023-10-19T12:32:06;6.13;;;2.25;;
9563;SDS011;4820;50.870;4.702;2023-10-19T12:34:32;8.52;;;2.42;;
9563;SDS011;4820;50.870;4.702;2023-10-19T12:36:58;5.88;;;2.05;;
9563;SDS011;4820;50.870;4.702;2023-10-19T12:39:24;5.05;;;2.00;;
9563;SDS011;4820;50.870;4.702;2023-10-19T12:42:10;4.85;;;2.17;;
9563;SDS011;4820;50.870;4.702;2023-10-19T12:44:36;4.82;;;2.08;;
9563;SDS011;4820;50.870;4.702;2023-10-19T12:47:06;6.28;;;2.13;;
9563;SDS011;4820;50.870;4.702;2023-10-19T12:49:36;5.72;;;1.98;;
9563;SDS011;4820;50.870;4.702;2023-10-19T12:52:02;5.70;;;2.15;;
9563;SDS011;4820;50.870;4.702;2023-10-19T12:54:29;6.43;;;2.05;;
9563;SDS011;4820;50.870;4.702;2023-10-19T12:56:55;9.27;;;1.88;;
9563;SDS011;4820;50.870;4.702;2023-10-19T12:59:21;7.18;;;1.73;;
9563;SDS011;4820;50.870;4.702;2023-10-19T13:01:47;4.85;;;1.90;;
9563;SDS011;4820;50.870;4.702;2023-10-19T13:04:17;4.70;;;1.70;;
9563;SDS011;4820;50.870;4.702;2023-10-19T13:06:43;3.63;;;1.73;;
9563;SDS011;4820;50.870;4.702;2023-10-19T13:09:12;4.65;;;1.77;;
9563;SDS011;4820;50.870;4.702;2023-10-19T13:11:40;4.43;;;1.67;;
9563;SDS011;4820;50.870;4.702;2023-10-19T13:14:08;3.63;;;1.50;;
9563;SDS011;4820;50.870;4.702;2023-10-19T13:16:35;5.78;;;1.55;;
9563;SDS011;4820;50.870;4.702;2023-10-19T13:19:01;4.70;;;1.60;;
9563;SDS011;4820;50.870;4.702;2023-10-19T13:21:34;3.03;;;1.30;;
9563;SDS011;4820;50.870;4.702;2023-10-19T13:23:59;2.53;;;1.50;;
9563;SDS011;4820;50.870;4.702;2023-10-19T13:26:27;4.22;;;1.27;;
9563;SDS011;4820;50.870;4.702;2023-10-19T13:28:53;3.67;;;1.33;;
9563;SDS011;4820;50.870;4.702;2023-10-19T13:31:20;4.85;;;1.60;;
9563;SDS011;4820;50.870;4.702;2023-10-19T13:33:47;5.63;;;1.80;;
9563;SDS011;4820;50.870;4.702;2023-10-19T13:36:13;3.63;;;1.40;;
9563;SDS011;4820;50.870;4.702;2023-10-19T13:38:40;2.67;;;1.58;;
9563;SDS011;4820;50.870;4.702;2023-10-19T13:41:06;2.40;;;1.80;;
9563;SDS011;4820;50.870;4.702;2023-10-19T13:43:35;2.15;;;1.30;;
9563;SDS011;4820;50.870;4.702;2023-10-19T13:46:01;2.17;;;1.20;;
9563;SDS011;4820;50.870;4.702;2023-10-19T13:48:29;5.32;;;1.67;;
9563;SDS011;4820;50.870;4.702;2023-10-19T13:50:54;3.47;;;1.50;;
9563;SDS011;4820;50.870;4.702;2023-10-19T13:53:26;3.90;;;1.20;;
9563;SDS011;4820;50.870;4.702;2023-10-19T13:55:52;2.50;;;1.25;;
9563;SDS011;4820;50.870;4.702;2023-10-19T13:58:18;2.58;;;1.33;;
9563;SDS011;4820;50.870;4.702;2023-10-19T14:00:44;2.13;;;1.27;;
9563;SDS011;4820;50.870;4.702;2023-10-19T14:03:12;3.40;;;1.30;;
9563;SDS011;4820;50.870;4.702;2023-10-19T14:05:44;3.65;;;1.33;;
9563;SDS011;4820;50.870;4.702;2023-10-19T14:08:18;3.40;;;1.45;;
9563;SDS011;4820;50.870;4.702;2023-10-19T14:10:45;2.67;;;1.30;;
9563;SDS011;4820;50.870;4.702;2023-10-19T14:13:11;3.33;;;1.20;;
9563;SDS011;4820;50.870;4.702;2023-10-19T14:15:37;1.85;;;1.10;;
9563;SDS011;4820;50.870;4.702;2023-10-19T14:18:05;3.53;;;1.30;;
9563;SDS011;4820;50.870;4.702;2023-10-19T14:20:37;1.75;;;1.05;;
9563;SDS011;4820;50.870;4.702;2023-10-19T14:23:09;2.88;;;1.17;;
9563;SDS011;4820;50.870;4.702;2023-10-19T14:25:38;1.48;;;1.05;;
9563;SDS011;4820;50.870;4.702;2023-10-19T14:28:07;3.83;;;1.17;;
9563;SDS011;4820;50.870;4.702;2023-10-19T14:30:38;1.73;;;1.27;;
9563;SDS011;4820;50.870;4.702;2023-10-19T14:33:04;2.25;;;1.10;;
9563;SDS011;4820;50.870;4.702;2023-10-19T14:35:35;2.65;;;1.17;;
9563;SDS011;4820;50.870;4.702;2023-10-19T14:38:05;3.13;;;1.23;;
9563;SDS011;4820;50.870;4.702;2023-10-19T14:40:33;2.45;;;1.00;;
9563;SDS011;4820;50.870;4.702;2023-10-19T14:43:00;2.78;;;1.17;;
9563;SDS011;4820;50.870;4.702;2023-10-19T14:45:30;2.58;;;1.23;;
9563;SDS011;4820;50.870;4.702;2023-10-19T14:48:00;1.83;;;1.08;;
9563;SDS011;4820;50.870;4.702;2023-10-19T14:50:45;1.80;;;1.17;;
9563;SDS011;4820;50.870;4.702;2023-10-19T14:53:12;1.55;;;1.00;;
9563;SDS011;4820;50.870;4.702;2023-10-19T14:55:39;3.17;;;1.30;;
9563;SDS011;4820;50.870;4.702;2023-10-19T14:58:06;2.60;;;1.30;;
9563;SDS011;4820;50.870;4.702;2023-10-19T15:00:32;2.28;;;1.40;;
9563;SDS011;4820;50.870;4.702;2023-10-19T15:03:20;1.25;;;1.10;;
9563;SDS011;4820;50.870;4.702;2023-10-19T15:05:52;2.85;;;1.30;;
9563;SDS011;4820;50.870;4.702;2023-10-19T15:08:20;1.40;;;1.08;;
9563;SDS011;4820;50.870;4.702;2023-10-19T15:11:06;2.33;;;1.10;;
9563;SDS011;4820;50.870;4.702;2023-10-19T15:13:32;2.30;;;1.20;;
9563;SDS011;4820;50.870;4.702;2023-10-19T15:16:06;1.95;;;1.08;;
9563;SDS011;4820;50.870;4.702;2023-10-19T15:18:34;2.00;;;1.20;;
9563;SDS011;4820;50.870;4.702;2023-10-19T15:21:10;1.77;;;1.00;;
9563;SDS011;4820;50.870;4.702;2023-10-19T15:23:39;2.15;;;1.10;;
9563;SDS011;4820;50.870;4.702;2023-10-19T15:26:07;2.72;;;1.27;;
9563;SDS011;4820;50.870;4.702;2023-10-19T15:28:45;2.45;;;1.50;;
9563;SDS011;4820;50.870;4.702;2023-10-19T15:31:10;4.18;;;1.50;;
9563;SDS011;4820;50.870;4.702;2023-10-19T15:33:39;1.58;;;0.88;;
9563;SDS011;4820;50.870;4.702;2023-10-19T15:36:05;1.63;;;1.20;;
9563;SDS011;4820;50.870;4.702;2023-10-19T15:38:31;1.85;;;1.30;;